Time;durP1;ratioP1;P1;durP2;ratioP2;P2;SDS_P1;SDS_P2;PMS_P1;PMS_P2;Temp;Humidity;BMP_temperature;BMP_pressure;BME280_temperature;BME280_humidity;BME280_pressure;Samples;Min_cycle;Max_cycle;Signal;HPM_P1;HPM_P2
2023/11/26 00:00:59;;;;;;;8.57;3.70;;;;;;;2.25;100.00;100180.38;5060162;28;20040;-69
2023/11/26 00:03:30;;;;;;;9.48;3.67;;;;;;;2.24;100.00;100194.31;5072554;28;20109;-69
2023/11/26 00:06:01;;;;;;;;;;;;;;;2.21;100.00;100188.28;5071467;28;20489;-69
2023/11/26 00:08:29;;;;;;;6.32;2.85;;;;;;;2.15;100.00;100186.63;5054771;28;19976;-68
2023/11/26 00:10:57;;;;;;;4.78;3.17;;;;;;;2.18;100.00;100190.97;5061636;28;20039;-69
2023/11/26 00:13:27;;;;;;;7.45;3.53;;;;;;;2.14;100.00;100182.28;5069928;28;20045;-67
2023/11/26 00:15:59;;;;;;;5.38;3.42;;;;;;;2.14;100.00;100182.28;5069273;28;20032;-67
2023/11/26 00:18:28;;;;;;;6.87;3.80;;;;;;;2.11;100.00;100183.22;5070440;28;20051;-68
2023/11/26 00:20:57;;;;;;;5.93;3.55;;;;;;;2.00;100.00;100173.81;5064363;28;20046;-68
2023/11/26 00:23:25;;;;;;;10.95;3.63;;;;;;;2.09;100.00;100194.56;5069891;28;20509;-68
2023/11/26 00:25:55;;;;;;;8.05;3.70;;;;;;;2.05;100.00;100193.75;5072224;28;20044;-67
2023/11/26 00:28:23;;;;;;;7.68;4.00;;;;;;;2.09;100.00;100205.00;5072124;28;20045;-68
2023/11/26 00:30:51;;;;;;;9.05;4.20;;;;;;;2.09;100.00;100212.84;5062989;28;20040;-67
2023/11/26 00:33:25;;;;;;;7.38;3.83;;;;;;;2.08;100.00;100201.53;5055254;28;20432;-68
2023/11/26 00:35:54;;;;;;;9.15;4.25;;;;;;;2.13;100.00;100206.69;5074172;28;20048;-69
2023/11/26 00:38:22;;;;;;;5.80;3.75;;;;;;;2.15;100.00;100212.75;5059717;28;20052;-68
2023/11/26 00:40:51;;;;;;;7.93;3.67;;;;;;;2.19;100.00;100205.75;5063253;28;20052;-68
2023/11/26 00:43:19;;;;;;;9.75;4.57;;;;;;;2.19;100.00;100211.84;5070427;28;20548;-68
2023/11/26 00:45:47;;;;;;;6.65;3.72;;;;;;;2.21;100.00;100211.78;5071280;28;20105;-68
2023/11/26 00:48:15;;;;;;;7.18;4.00;;;;;;;2.23;100.00;100216.09;5051196;28;20075;-68
2023/11/26 00:50:45;;;;;;;4.65;3.40;;;;;;;2.27;100.00;100217.78;5045575;28;20049;-69
2023/11/26 00:53:15;;;;;;;9.00;3.85;;;;;;;2.29;100.00;100226.47;5085627;28;20045;-67
2023/11/26 00:55:46;;;;;;;4.65;3.17;;;;;;;2.33;100.00;100211.59;5072689;28;20334;-69
2023/11/26 00:58:15;;;;;;;5.45;2.97;;;;;;;2.33;100.00;100220.31;5068360;28;20041;-68
2023/11/26 01:00:45;;;;;;;4.43;2.60;;;;;;;2.37;100.00;100221.97;5066160;28;20343;-68
2023/11/26 01:03:12;;;;;;;6.18;2.30;;;;;;;2.38;100.00;100218.47;5053990;28;20054;-69
2023/11/26 01:05:45;;;;;;;3.85;2.55;;;;;;;2.42;100.00;100222.75;5071285;28;20044;-68
2023/11/26 01:08:14;;;;;;;8.75;2.80;;;;;;;2.41;100.00;100221.03;5069895;28;20529;-68
2023/11/26 01:10:43;;;;;;;6.20;2.85;;;;;;;2.43;100.00;100224.47;5060184;28;20068;-68
2023/11/26 01:13:13;;;;;;;3.83;2.55;;;;;;;2.43;100.00;100226.22;5067935;28;20059;-68
2023/11/26 01:15:41;;;;;;;3.92;2.50;;;;;;;2.47;100.00;100228.78;5069414;28;20045;-69
2023/11/26 01:18:09;;;;;;;8.05;3.15;;;;;;;2.47;100.00;100223.56;5066968;28;20410;-69
2023/11/26 01:20:37;;;;;;;6.03;2.70;;;;;;;2.49;100.00;100215.69;5063072;28;20558;-68
2023/11/26 01:23:07;;;;;;;6.47;2.60;;;;;;;2.50;100.00;100221.78;5033555;28;20098;-68
2023/11/26 01:25:35;;;;;;;6.72;2.72;;;;;;;2.53;100.00;100227.78;5076139;28;20087;-68
2023/11/26 01:28:03;;;;;;;5.82;3.08;;;;;;;2.55;100.00;100222.53;5070519;28;20079;-69
2023/11/26 01:30:33;;;;;;;6.07;3.15;;;;;;;2.52;100.00;100220.84;5065440;28;20059;-68
2023/11/26 01:33:01;;;;;;;5.85;3.17;;;;;;;2.54;100.00;100213.84;5085200;28;20041;-68
2023/11/26 01:35:32;;;;;;;4.40;3.03;;;;;;;2.54;100.00;100218.19;5067774;28;20452;-68
2023/11/26 01:38:00;;;;;;;6.57;3.03;;;;;;;2.54;100.00;100221.69;5069118;28;20083;-68
2023/11/26 01:40:36;;;;;;;6.40;3.13;;;;;;;2.54;100.00;100223.44;5060288;28;20163;-68
2023/11/26 01:43:04;;;;;;;8.32;3.40;;;;;;;2.55;100.00;100235.63;5069009;28;20068;-68
2023/11/26 01:45:34;;;;;;;6.07;3.50;;;;;;;2.58;100.00;100230.34;5068751;28;20055;-69
2023/11/26 01:48:04;;;;;;;10.07;3.78;;;;;;;2.54;100.00;100233.88;5094880;28;20119;-67
2023/11/26 01:50:33;;;;;;;9.60;3.75;;;;;;;2.56;100.00;100232.97;5072437;28;20218;-68
2023/11/26 01:53:02;;;;;;;6.82;3.33;;;;;;;2.55;100.00;100233.88;5069586;28;20145;-68
2023/11/26 01:55:32;;;;;;;5.32;3.83;;;;;;;2.55;100.00;100239.09;5071806;28;20068;-68
2023/11/26 01:57:59;;;;;;;6.32;3.75;;;;;;;2.54;100.00;100237.38;5072820;28;20152;-68
2023/11/26 02:00:27;;;;;;;6.22;4.20;;;;;;;2.60;100.00;100239.03;5061680;28;20219;-67
2023/11/26 02:02:56;;;;;;;11.43;3.60;;;;;;;2.60;100.00;100236.41;5069576;28;20061;-68
2023/11/26 02:05:24;;;;;;;9.70;4.15;;;;;;;2.63;100.00;100241.59;5071805;28;20076;-68
2023/11/26 02:07:55;;;;;;;9.63;4.22;;;;;;;2.60;100.00;100233.78;5072247;28;20492;-67
2023/11/26 02:10:23;;;;;;;8.98;5.07;;;;;;;2.69;100.00;100246.69;5066426;28;20045;-67
2023/11/26 02:13:06;;;;;;;9.32;4.72;;;;;;;2.69;100.00;100244.94;5071446;28;20075;-68
2023/11/26 02:15:35;;;;;;;9.60;3.95;;;;;;;2.68;100.00;100242.34;5070904;28;20487;-69
2023/11/26 02:18:05;;;;;;;7.15;3.75;;;;;;;2.72;100.00;100257.09;5056510;28;20044;-68
2023/11/26 02:20:37;;;;;;;8.38;4.07;;;;;;;2.73;100.00;100253.59;5064199;28;20071;-68
2023/11/26 02:23:05;;;;;;;9.60;4.53;;;;;;;2.75;100.00;100254.44;5084663;28;20037;-69
2023/11/26 02:25:34;;;;;;;10.65;4.10;;;;;;;2.73;100.00;100245.75;5052371;28;20582;-68
2023/11/26 02:28:05;;;;;;;10.45;4.00;;;;;;;2.80;100.00;100257.84;5071624;28;20047;-68
2023/11/26 02:30:34;;;;;;;7.43;3.95;;;;;;;2.81;100.00;100263.06;5066008;28;20316;-68
2023/11/26 02:33:03;;;;;;;11.13;4.28;;;;;;;2.82;100.00;100261.31;5067915;28;20052;-70
2023/11/26 02:35:31;;;;;;;6.68;4.20;;;;;;;2.83;100.00;100251.72;5069244;28;20405;-69
2023/11/26 02:38:02;;;;;;;9.18;4.25;;;;;;;2.87;100.00;100262.06;5084919;28;20059;-68
2023/11/26 02:40:33;;;;;;;11.88;4.30;;;;;;;2.91;100.00;100261.13;5064599;28;20052;-69
2023/11/26 02:43:02;;;;;;;;;;;;;;;2.94;100.00;100260.22;5065695;28;20044;-69
2023/11/26 02:45:30;;;;;;;12.13;4.20;;;;;;;2.94;100.00;100260.22;5105551;27;19925;-68
2023/11/26 02:48:01;;;;;;;11.93;4.05;;;;;;;2.94;100.00;100258.47;5073058;28;20037;-68
2023/11/26 02:50:32;;;;;;;7.90;4.28;;;;;;;2.93;100.00;100248.03;5067528;28;20060;-68
2023/11/26 02:53:00;;;;;;;6.70;3.58;;;;;;;2.98;100.00;100261.91;5071293;28;20056;-68
2023/11/26 02:55:29;;;;;;;7.85;3.63;;;;;;;2.97;100.00;100249.72;5056202;28;20056;-68
2023/11/26 02:57:58;;;;;;;5.90;3.95;;;;;;;3.01;100.00;100256.56;5073866;28;20508;-68
2023/11/26 03:00:28;;;;;;;9.65;4.05;;;;;;;3.02;100.00;100264.41;5066031;28;20468;-68
2023/11/26 03:02:56;;;;;;;6.97;3.80;;;;;;;3.01;100.00;100264.44;5065299;28;20068;-68
2023/11/26 03:05:25;;;;;;;6.95;3.75;;;;;;;3.03;100.00;100266.13;5072739;28;20047;-70
2023/11/26 03:08:03;;;;;;;6.57;4.00;;;;;;;3.05;100.00;100266.97;5068586;28;20431;-69
2023/11/26 03:13:20;;;;;;;5.22;3.72;;;;;;;3.10;100.00;100272.13;5086098;28;20109;-68
2023/11/26 03:15:54;;;;;;;6.13;4.18;;;;;;;3.12;100.00;100272.97;5058643;28;20058;-69
2023/11/26 03:18:24;;;;;;;7.75;4.07;;;;;;;3.12;100.00;100271.22;5076622;28;20052;-70
2023/11/26 03:20:56;;;;;;;9.23;4.43;;;;;;;3.16;100.00;100269.38;5068443;28;20052;-68
2023/11/26 03:23:24;;;;;;;7.40;3.75;;;;;;;3.18;100.00;100276.31;5077855;28;20867;-68
2023/11/26 03:25:52;;;;;;;8.45;4.38;;;;;;;3.21;100.00;100278.00;5063413;28;20072;-68
2023/11/26 03:28:21;;;;;;;6.78;3.92;;;;;;;3.26;100.00;100283.16;5076945;28;20064;-68
2023/11/26 03:30:56;;;;;;;7.38;4.55;;;;;;;3.32;100.00;100277.78;5084791;28;20048;-68
2023/11/26 03:33:27;;;;;;;7.55;4.30;;;;;;;3.35;100.00;100278.59;5071803;28;20402;-68
2023/11/26 03:35:58;;;;;;;7.45;4.50;;;;;;;3.40;100.00;100284.63;5075046;28;20040;-69
2023/11/26 03:38:26;;;;;;;10.73;5.00;;;;;;;3.41;100.00;100282.88;5098992;28;20547;-68
2023/11/26 03:40:56;;;;;;;9.57;4.40;;;;;;;3.47;100.00;100280.97;5107555;27;20052;-68
2023/11/26 03:43:24;;;;;;;7.40;4.35;;;;;;;3.46;100.00;100276.63;5072929;28;20056;-68
2023/11/26 03:45:53;;;;;;;6.55;4.20;;;;;;;3.51;100.00;100285.25;5072377;28;20048;-68
2023/11/26 03:48:23;;;;;;;9.93;4.50;;;;;;;3.47;100.00;100282.72;5076533;28;20558;-68
2023/11/26 03:50:53;;;;;;;10.05;4.25;;;;;;;3.42;100.00;100282.84;5076926;28;20477;-67
2023/11/26 03:53:21;;;;;;;8.30;5.50;;;;;;;3.42;100.00;100287.22;5076795;28;20048;-68
2023/11/26 03:55:51;;;;;;;9.38;4.60;;;;;;;3.39;100.00;100285.50;5076282;28;20055;-69
2023/11/26 03:58:19;;;;;;;11.52;4.43;;;;;;;3.33;100.00;100288.25;5053773;28;20083;-69
2023/11/26 04:00:48;;;;;;;11.55;5.55;;;;;;;3.17;100.00;100278.94;5053789;28;20131;-69
2023/11/26 04:03:18;;;;;;;8.25;4.85;;;;;;;3.07;100.00;100278.28;5053098;28;20045;-69
2023/11/26 04:05:47;;;;;;;8.55;5.15;;;;;;;3.06;100.00;100297.47;5083686;28;20044;-70
2023/11/26 04:08:16;;;;;;;13.98;5.80;;;;;;;3.03;100.00;100299.28;5067860;28;20055;-67
2023/11/26 04:10:43;;;;;;;9.75;5.53;;;;;;;2.97;100.00;100291.56;5077555;28;20102;-69
2023/11/26 04:13:14;;;;;;;11.55;5.53;;;;;;;2.95;100.00;100290.72;5073355;28;20063;-68
2023/11/26 04:15:54;;;;;;;12.98;5.55;;;;;;;2.99;100.00;100287.16;5073787;28;20497;-68
2023/11/26 04:18:28;;;;;;;10.32;6.00;;;;;;;3.03;100.00;100284.44;5068162;28;20074;-68
2023/11/26 04:20:56;;;;;;;9.50;6.28;;;;;;;3.04;100.00;100288.78;5051319;28;20090;-68
2023/11/26 04:23:24;;;;;;;12.00;7.20;;;;;;;3.02;100.00;100281.84;5065834;28;20116;-68
2023/11/26 04:25:53;;;;;;;12.25;6.50;;;;;;;2.95;100.00;100283.72;5068901;28;20056;-69
2023/11/26 04:28:23;;;;;;;11.07;6.30;;;;;;;2.95;100.00;100291.56;5071215;28;20083;-68
2023/11/26 04:30:51;;;;;;;14.77;6.35;;;;;;;2.96;100.00;100290.69;5068150;28;20052;-68
2023/11/26 04:33:20;;;;;;;13.57;7.80;;;;;;;3.01;100.00;100291.44;5049159;28;20126;-70
2023/11/26 04:35:50;;;;;;;17.65;9.20;;;;;;;3.11;100.00;100293.03;5072839;28;20052;-70
2023/11/26 04:38:18;;;;;;;16.10;10.02;;;;;;;3.18;100.00;100299.00;5068530;28;20068;-69
2023/11/26 04:40:47;;;;;;;16.35;9.82;;;;;;;3.24;100.00;100304.13;5086379;28;20068;-69
2023/11/26 04:43:14;;;;;;;16.02;9.35;;;;;;;3.28;100.00;100308.41;5069298;28;20118;-69
2023/11/26 04:45:42;;;;;;;16.35;9.55;;;;;;;3.32;100.00;100307.44;5072122;28;20572;-69
2023/11/26 04:48:11;;;;;;;14.35;8.25;;;;;;;3.34;100.00;100307.41;5069857;28;20460;-68
2023/11/26 04:50:39;;;;;;;11.88;7.18;;;;;;;3.36;100.00;100316.13;5080524;28;20102;-68
2023/11/26 04:53:09;;;;;;;10.68;6.20;;;;;;;3.31;100.00;100313.56;5063115;28;20123;-68
2023/11/26 04:55:39;;;;;;;9.25;5.50;;;;;;;3.22;100.00;100315.50;5067629;28;20471;-69
2023/11/26 04:58:07;;;;;;;8.48;5.22;;;;;;;3.18;100.00;100314.69;5067006;28;20135;-66
2023/11/26 05:00:36;;;;;;;8.98;5.40;;;;;;;3.10;100.00;100312.22;5067427;28;20059;-69
2023/11/26 05:03:05;;;;;;;8.95;5.43;;;;;;;3.07;100.00;100307.06;5072437;28;20519;-69
2023/11/26 05:05:36;;;;;;;9.07;5.28;;;;;;;3.17;100.00;100323.44;5070476;28;20071;-69
2023/11/26 05:08:05;;;;;;;8.70;5.20;;;;;;;3.13;100.00;100322.66;5084979;28;20101;-68
2023/11/26 05:10:35;;;;;;;9.98;5.88;;;;;;;3.09;100.00;100315.75;5068775;28;20056;-69
2023/11/26 05:13:03;;;;;;;11.70;5.88;;;;;;;3.08;100.00;100329.72;5062817;28;20133;-68
2023/11/26 05:15:31;;;;;;;9.80;5.63;;;;;;;3.07;100.00;100330.59;5071305;28;20056;-69
2023/11/26 05:17:59;;;;;;;11.00;5.78;;;;;;;3.07;100.00;100330.59;5072516;28;20135;-69
2023/11/26 05:20:28;;;;;;;11.35;6.25;;;;;;;3.10;100.00;100325.31;5070919;28;20052;-70
2023/11/26 05:22:56;;;;;;;13.60;6.53;;;;;;;3.11;100.00;100320.94;5071882;28;20157;-69
2023/11/26 05:25:25;;;;;;;12.57;7.22;;;;;;;3.07;100.00;100317.50;5042157;28;20132;-71
2023/11/26 05:27:54;;;;;;;11.90;7.53;;;;;;;3.17;100.00;100326.03;5078734;28;20055;-69
2023/11/26 05:30:23;;;;;;;16.35;8.10;;;;;;;3.20;100.00;100319.91;5075814;28;20066;-69
2023/11/26 05:32:51;;;;;;;14.45;8.40;;;;;;;3.24;100.00;100326.81;5067317;28;20044;-69
2023/11/26 05:35:19;;;;;;;15.88;8.30;;;;;;;3.16;100.00;100316.47;5055683;28;20041;-70
2023/11/26 05:37:47;;;;;;;15.88;8.70;;;;;;;3.23;100.00;100332.94;5075265;28;20060;-69
2023/11/26 05:40:15;;;;;;;19.70;9.55;;;;;;;3.24;100.00;100332.06;5074629;28;20040;-69
2023/11/26 05:42:45;;;;;;;18.15;9.07;;;;;;;3.23;100.00;100339.03;5071896;28;20039;-69
2023/11/26 05:45:14;;;;;;;22.92;9.68;;;;;;;3.18;100.00;100341.72;5080646;28;20051;-68
2023/11/26 05:47:42;;;;;;;14.52;9.35;;;;;;;3.22;100.00;100358.25;5082979;28;20053;-68
2023/11/26 05:50:11;;;;;;;20.67;10.32;;;;;;;3.21;100.00;100353.91;5061299;28;20054;-68
2023/11/26 05:52:39;;;;;;;20.08;11.18;;;;;;;3.20;100.00;100361.78;5062796;28;20116;-69
2023/11/26 05:55:08;;;;;;;17.77;10.07;;;;;;;3.19;100.00;100366.13;5091855;28;20045;-68
2023/11/26 05:57:38;;;;;;;20.90;11.13;;;;;;;3.16;100.00;100368.81;5080405;28;20114;-68
2023/11/26 06:00:07;;;;;;;24.38;11.55;;;;;;;3.12;100.00;100373.25;5058588;28;20044;-69
2023/11/26 06:02:42;;;;;;;19.52;10.95;;;;;;;3.12;100.00;100370.63;5060748;28;20511;-69
2023/11/26 06:05:10;;;;;;;23.50;11.25;;;;;;;3.11;100.00;100379.38;5092195;28;20495;-68
2023/11/26 06:07:39;;;;;;;24.15;11.00;;;;;;;3.06;100.00;100378.56;5088757;28;20049;-70
2023/11/26 06:10:09;;;;;;;24.17;11.60;;;;;;;3.12;100.00;100381.09;5092647;28;20262;-69
2023/11/26 06:12:37;;;;;;;;;;;;;;;3.15;100.00;100382.78;5069766;28;20047;-68
2023/11/26 06:15:07;;;;;;;20.13;11.27;;;;;;;3.14;100.00;100381.94;5084251;28;19955;-68
2023/11/26 06:17:36;;;;;;;23.38;11.70;;;;;;;3.12;100.00;100383.72;5084793;28;20062;-68
2023/11/26 06:20:10;;;;;;;21.48;11.68;;;;;;;2.98;100.00;100366.53;5091058;28;20052;-70
2023/11/26 06:22:37;;;;;;;19.13;11.48;;;;;;;3.00;100.00;100378.66;5066824;28;20091;-70
2023/11/26 06:25:07;;;;;;;22.17;11.20;;;;;;;2.99;100.00;100382.16;5067502;28;20457;-68
2023/11/26 06:27:35;;;;;;;20.37;11.90;;;;;;;2.95;100.00;100388.34;5072100;28;20311;-70
2023/11/26 06:30:05;;;;;;;19.98;11.93;;;;;;;2.90;100.00;100381.47;5055312;28;20086;-68
2023/11/26 06:32:33;;;;;;;22.42;12.70;;;;;;;2.92;100.00;100377.06;5058624;28;20052;-68
2023/11/26 06:35:12;;;;;;;23.60;12.77;;;;;;;2.89;100.00;100377.13;5071410;28;20041;-70
2023/11/26 06:37:40;;;;;;;23.40;11.85;;;;;;;2.92;100.00;100385.78;5072368;28;20049;-69
2023/11/26 06:40:09;;;;;;;24.85;13.40;;;;;;;2.92;100.00;100383.16;5074867;28;20036;-68
2023/11/26 06:42:40;;;;;;;25.67;12.90;;;;;;;2.96;100.00;100384.00;5049919;28;20536;-69
2023/11/26 06:45:10;;;;;;;23.23;12.25;;;;;;;2.96;100.00;100397.06;5056313;28;20040;-70
2023/11/26 06:47:39;;;;;;;;;;;;;;;2.97;100.00;100397.03;5070601;28;20131;-71
2023/11/26 06:50:11;;;;;;;25.00;12.40;;;;;;;2.95;100.00;100398.81;5086382;28;19920;-69
2023/11/26 06:52:39;;;;;;;23.25;12.70;;;;;;;2.94;100.00;100404.06;5063563;28;20045;-68
2023/11/26 06:55:10;;;;;;;24.20;11.88;;;;;;;2.89;100.00;100392.81;5073184;28;20028;-70
2023/11/26 06:57:39;;;;;;;23.38;11.65;;;;;;;2.90;100.00;100395.41;5074386;28;20536;-70
2023/11/26 07:00:11;;;;;;;25.48;12.40;;;;;;;2.91;100.00;100402.38;5073306;28;20028;-67
2023/11/26 07:02:40;;;;;;;23.73;11.43;;;;;;;2.91;100.00;100398.88;5080301;28;20045;-69
2023/11/26 07:05:12;;;;;;;23.60;12.35;;;;;;;2.97;100.00;100394.44;5067712;28;20440;-71
2023/11/26 07:07:42;;;;;;;22.90;12.23;;;;;;;3.05;100.00;100389.06;5055544;28;20139;-67
2023/11/26 07:10:11;;;;;;;26.08;13.55;;;;;;;3.12;100.00;100383.72;5069076;28;20048;-69
2023/11/26 07:12:41;;;;;;;25.10;12.43;;;;;;;3.20;100.00;100387.94;5067444;28;20098;-70
2023/11/26 07:15:11;;;;;;;22.92;12.02;;;;;;;3.28;100.00;100381.69;5071684;28;20447;-68
2023/11/26 07:17:39;;;;;;;21.08;11.60;;;;;;;3.34;100.00;100385.94;5072207;28;20476;-69
2023/11/26 07:20:13;;;;;;;19.33;11.30;;;;;;;3.38;100.00;100374.53;5073606;28;20080;-68
2023/11/26 07:22:41;;;;;;;23.45;12.40;;;;;;;3.32;100.00;100375.50;5071314;28;20082;-68
2023/11/26 07:25:10;;;;;;;22.50;11.80;;;;;;;3.29;100.00;100379.94;5076722;28;20129;-68
2023/11/26 07:27:39;;;;;;;20.35;12.27;;;;;;;3.34;100.00;100393.78;5080675;28;20581;-69
2023/11/26 07:30:09;;;;;;;22.13;12.30;;;;;;;3.35;100.00;100392.91;5073581;28;20131;-69
2023/11/26 07:32:38;;;;;;;24.80;11.93;;;;;;;3.39;100.00;100397.19;5068535;28;20130;-67
2023/11/26 07:35:33;;;;;;;21.77;12.10;;;;;;;3.55;100.00;100398.66;5068317;28;20147;-70
2023/11/26 07:38:04;;;;;;;20.77;10.57;;;;;;;3.65;100.00;100402.81;5076072;28;20052;-68
2023/11/26 07:40:32;;;;;;;21.90;10.40;;;;;;;3.74;100.00;100402.66;5044907;28;20617;-68
2023/11/26 07:43:00;;;;;;;18.40;9.85;;;;;;;3.83;100.00;100412.94;5060870;28;20328;-68
2023/11/26 07:45:32;;;;;;;16.35;9.57;;;;;;;3.87;100.00;100414.63;5065344;28;20059;-68
2023/11/26 07:48:00;;;;;;;21.70;10.32;;;;;;;3.90;100.00;100412.84;5074052;28;20048;-70
2023/11/26 07:50:30;;;;;;;22.42;10.63;;;;;;;3.93;100.00;100412.78;5069607;28;20041;-69
2023/11/26 07:53:00;;;;;;;16.48;8.57;;;;;;;3.96;100.00;100412.69;5065538;28;20057;-69
2023/11/26 07:55:29;;;;;;;16.88;9.30;;;;;;;4.01;100.00;100405.63;5070836;28;20059;-68
2023/11/26 07:57:59;;;;;;;16.55;8.82;;;;;;;4.02;100.00;100407.34;5076952;28;20067;-68
2023/11/26 08:00:28;;;;;;;16.55;8.68;;;;;;;4.03;100.00;100411.69;5076123;28;20040;-68
2023/11/26 08:02:57;;;;;;;19.10;9.23;;;;;;;4.09;100.00;100414.22;5072654;28;20424;-68
2023/11/26 08:05:25;;;;;;;15.30;8.45;;;;;;;4.10;100.00;100418.53;5070947;28;20048;-68
2023/11/26 08:07:57;;;;;;;17.08;9.15;;;;;;;4.09;100.00;100403.72;5071982;28;20581;-69
2023/11/26 08:10:28;;;;;;;14.30;8.30;;;;;;;4.18;100.00;100419.25;5072406;28;20539;-69
2023/11/26 08:12:57;;;;;;;18.27;8.68;;;;;;;4.20;100.00;100426.19;5079683;28;20070;-68
2023/11/26 08:15:27;;;;;;;15.15;8.25;;;;;;;4.22;100.00;100415.69;5077786;28;20040;-68
2023/11/26 08:17:56;;;;;;;13.93;8.77;;;;;;;4.28;100.00;100426.03;5081153;28;20040;-69
2023/11/26 08:20:25;;;;;;;14.85;8.25;;;;;;;4.30;100.00;100429.47;5078464;28;20146;-68
2023/11/26 08:22:59;;;;;;;13.90;8.20;;;;;;;4.18;100.00;100422.75;5067951;28;20055;-68
2023/11/26 08:25:33;;;;;;;14.63;7.80;;;;;;;4.11;100.00;100430.75;5050631;28;20126;-69
2023/11/26 08:28:02;;;;;;;15.35;8.07;;;;;;;4.10;100.00;100429.88;5073239;28;20044;-69
2023/11/26 08:30:39;;;;;;;14.60;8.10;;;;;;;4.17;100.00;100425.38;5085469;28;20048;-68
2023/11/26 08:33:07;;;;;;;19.27;8.32;;;;;;;4.25;100.00;100426.06;5083382;28;20107;-68
2023/11/26 08:35:37;;;;;;;14.43;8.02;;;;;;;4.24;100.00;100427.00;5072501;28;20102;-70
2023/11/26 08:38:05;;;;;;;14.45;7.93;;;;;;;4.22;100.00;100424.41;5065785;28;20401;-68
2023/11/26 08:40:38;;;;;;;16.90;7.80;;;;;;;4.24;100.00;100421.75;5066063;28;20103;-69
2023/11/26 08:43:13;;;;;;;12.15;7.45;;;;;;;4.32;100.00;100432.06;5063411;28;20045;-69
2023/11/26 08:45:41;;;;;;;11.98;7.03;;;;;;;4.35;100.00;100430.25;5067650;28;20350;-70
2023/11/26 08:48:13;;;;;;;13.63;7.57;;;;;;;4.38;100.00;100426.72;5070647;28;20405;-70
2023/11/26 08:50:41;;;;;;;15.50;7.47;;;;;;;4.37;100.00;100425.84;5070322;28;20048;-69
2023/11/26 08:53:12;;;;;;;12.45;7.25;;;;;;;4.42;100.00;100431.84;5063633;28;20045;-69
2023/11/26 08:55:42;;;;;;;15.35;7.63;;;;;;;4.47;100.00;100431.75;5068206;28;20040;-67
2023/11/26 08:58:10;;;;;;;13.23;7.45;;;;;;;4.53;100.00;100432.50;5076429;28;20052;-69
2023/11/26 09:00:39;;;;;;;12.45;7.25;;;;;;;4.57;100.00;100430.63;5077090;28;20531;-69
2023/11/26 09:03:08;;;;;;;12.35;7.03;;;;;;;4.58;100.00;100430.59;5080667;28;20424;-68
2023/11/26 09:05:36;;;;;;;12.02;7.45;;;;;;;4.58;100.00;100430.59;5070372;28;20072;-68
2023/11/26 09:08:05;;;;;;;12.15;6.85;;;;;;;4.60;100.00;100435.81;5071857;28;20044;-70
2023/11/26 09:10:36;;;;;;;14.52;7.10;;;;;;;4.62;100.00;100435.78;5072035;28;20586;-69
2023/11/26 09:13:07;;;;;;;11.55;6.32;;;;;;;4.59;100.00;100436.72;5074182;28;20079;-67
2023/11/26 09:15:38;;;;;;;13.57;7.55;;;;;;;4.56;100.00;100444.69;5067660;28;20550;-68
2023/11/26 09:18:06;;;;;;;13.13;6.97;;;;;;;4.56;100.00;100449.91;5066402;28;20048;-69
2023/11/26 09:20:35;;;;;;;12.00;6.75;;;;;;;4.62;100.00;100444.53;5070282;28;20395;-68
2023/11/26 09:23:04;;;;;;;10.73;6.07;;;;;;;4.71;100.00;100448.72;5063612;28;20069;-68
2023/11/26 09:25:34;;;;;;;12.05;5.95;;;;;;;4.70;100.00;100445.22;5073220;28;20048;-70
2023/11/26 09:28:07;;;;;;;10.05;5.82;;;;;;;4.70;100.00;100455.72;5080449;28;20109;-69
2023/11/26 09:30:36;;;;;;;11.60;5.50;;;;;;;4.66;100.00;100446.19;5072058;28;20078;-68
2023/11/26 09:33:04;;;;;;;10.40;6.07;;;;;;;4.66;100.00;100446.19;5063952;28;20347;-68
2023/11/26 09:35:33;;;;;;;8.63;5.75;;;;;;;4.68;100.00;100443.53;5065153;28;20048;-70
2023/11/26 09:38:02;;;;;;;11.20;5.55;;;;;;;4.78;100.00;100439.81;5069455;28;20441;-68
2023/11/26 09:40:30;;;;;;;12.95;6.00;;;;;;;4.76;100.00;100436.34;5064728;28;20044;-69
2023/11/26 09:42:58;;;;;;;9.57;4.63;;;;;;;4.68;100.00;100444.41;5066429;28;20044;-69
2023/11/26 09:45:27;;;;;;;10.10;5.20;;;;;;;4.59;100.00;100442.81;5063988;28;20053;-68
2023/11/26 09:47:58;;;;;;;8.02;4.60;;;;;;;4.70;100.00;100439.13;5068801;28;20513;-69
2023/11/26 09:50:30;;;;;;;9.20;4.43;;;;;;;4.60;100.00;100448.94;5037547;28;20159;-69
2023/11/26 09:53:00;;;;;;;6.85;3.95;;;;;;;4.46;100.00;100444.00;5073837;28;20057;-68
2023/11/26 09:55:38;;;;;;;8.43;3.95;;;;;;;4.40;100.00;100440.66;5066760;28;20424;-69
2023/11/26 09:58:08;;;;;;;10.18;4.10;;;;;;;4.40;100.00;100431.03;5072077;28;20128;-69
2023/11/26 10:00:36;;;;;;;9.23;4.13;;;;;;;4.44;100.00;100437.91;5053975;28;20049;-69
2023/11/26 10:03:08;;;;;;;6.05;3.50;;;;;;;4.40;100.00;100440.66;5067779;28;20047;-67
2023/11/26 10:05:38;;;;;;;10.65;4.03;;;;;;;4.51;100.00;100439.53;5078708;28;20048;-70
2023/11/26 10:08:08;;;;;;;10.10;3.80;;;;;;;4.61;100.00;100434.94;5062644;28;20490;-68
2023/11/26 10:10:49;;;;;;;9.53;3.73;;;;;;;4.54;100.00;100426.34;5058074;28;20123;-70
2023/11/26 10:13:17;;;;;;;10.88;4.43;;;;;;;4.51;100.00;100422.94;5069522;28;20041;-68
2023/11/26 10:15:45;;;;;;;12.02;4.18;;;;;;;4.47;100.00;100414.25;5075462;28;20048;-68
2023/11/26 10:18:16;;;;;;;8.57;3.75;;;;;;;4.59;100.00;100413.97;5080353;28;20055;-68
2023/11/26 10:20:53;;;;;;;6.18;3.40;;;;;;;4.62;100.00;100422.69;5072393;28;20108;-69
2023/11/26 10:23:28;;;;;;;8.02;3.53;;;;;;;4.53;100.00;100421.13;5068565;28;20100;-68
2023/11/26 10:25:59;;;;;;;7.40;4.10;;;;;;;4.52;100.00;100415.03;5067591;28;20102;-69
2023/11/26 10:28:28;;;;;;;11.48;4.10;;;;;;;4.74;100.00;100417.16;5057478;28;20056;-69
2023/11/26 10:31:05;;;;;;;9.07;4.30;;;;;;;4.85;100.00;100413.41;5071874;28;20098;-68
2023/11/26 10:33:41;;;;;;;12.73;3.95;;;;;;;4.93;100.00;100406.19;5069747;28;20053;-68
2023/11/26 10:36:11;;;;;;;8.18;3.95;;;;;;;5.05;100.00;100412.91;5072306;28;20056;-68
2023/11/26 10:38:39;;;;;;;8.30;3.53;;;;;;;5.11;100.00;100398.78;5073918;28;20067;-69
2023/11/26 10:41:08;;;;;;;7.75;3.92;;;;;;;5.15;100.00;100396.06;5073190;28;21572;-69
2023/11/26 10:43:37;;;;;;;7.70;3.83;;;;;;;5.10;100.00;100399.69;5054475;28;20045;-68
2023/11/26 10:46:15;;;;;;;9.82;3.90;;;;;;;5.01;100.00;100400.78;5067061;28;20570;-68
2023/11/26 10:48:55;;;;;;;11.23;4.28;;;;;;;4.80;100.00;100385.53;5072821;28;20044;-68
2023/11/26 10:51:28;;;;;;;8.60;4.00;;;;;;;4.73;100.00;100381.31;5082312;28;20527;-69
2023/11/26 10:54:03;;;;;;;10.38;4.15;;;;;;;4.84;100.00;100382.81;5066790;28;20048;-68
2023/11/26 10:56:37;;;;;;;9.55;4.32;;;;;;;5.13;100.00;100386.50;5084675;28;20108;-68
2023/11/26 10:59:09;;;;;;;10.52;4.22;;;;;;;5.23;100.00;100383.59;5057482;28;20056;-68
2023/11/26 11:01:38;;;;;;;11.85;4.38;;;;;;;5.19;100.00;100392.47;5078463;28;20037;-69
2023/11/26 11:04:13;;;;;;;10.10;4.63;;;;;;;5.01;100.00;100389.41;5081360;28;20040;-67
2023/11/26 11:06:43;;;;;;;10.20;4.07;;;;;;;4.89;100.00;100387.94;5068731;28;20543;-68
2023/11/26 11:09:24;;;;;;;8.77;4.32;;;;;;;4.83;100.00;100388.97;5071673;28;20451;-67
2023/11/26 11:12:00;;;;;;;12.18;4.15;;;;;;;4.75;100.00;100397.88;5071595;28;20047;-69
2023/11/26 11:14:30;;;;;;;11.05;4.15;;;;;;;4.68;100.00;100381.44;5044197;28;21679;-69
2023/11/26 11:16:58;;;;;;;11.30;4.40;;;;;;;4.81;100.00;100379.41;5072442;28;20082;-68
2023/11/26 11:19:52;;;;;;;8.20;4.05;;;;;;;4.92;100.00;100374.75;5072910;28;20121;-69
2023/11/26 11:22:32;;;;;;;10.00;4.03;;;;;;;4.90;100.00;100372.16;5070819;28;20044;-68
2023/11/26 11:25:06;;;;;;;13.13;4.63;;;;;;;4.86;100.00;100372.28;5097749;27;20075;-70
2023/11/26 11:27:48;;;;;;;11.07;4.50;;;;;;;4.83;100.00;100362.72;5072292;28;20499;-68
2023/11/26 11:30:49;;;;;;;10.27;4.95;;;;;;;5.01;100.00;100369.28;5077725;28;20037;-69
2023/11/26 11:33:19;;;;;;;10.07;4.88;;;;;;;5.07;100.00;100370.88;5067355;28;20041;-70
2023/11/26 11:35:50;;;;;;;12.00;4.65;;;;;;;5.08;100.00;100369.97;5061684;28;20352;-68